Time;durP1;ratioP1;P1;durP2;ratioP2;P2;SDS_P1;SDS_P2;PMS_P1;PMS_P2;Temp;Humidity;BMP_temperature;BMP_pressure;BME280_temperature;BME280_humidity;BME280_pressure;Samples;Min_cycle;Max_cycle;Signal;HPM_P1;HPM_P2
2021/12/13 00:01:50;;;;;;;9.50;5.43;;;6.80;91.30;;;;;;5036990;28;20423;-71
2021/12/13 00:04:19;;;;;;;14.30;5.60;;;6.60;91.50;;;;;;5049486;28;20512;-71
2021/12/13 00:06:50;;;;;;;9.87;5.07;;;6.60;91.70;;;;;;5051285;28;20502;-72
2021/12/13 00:09:22;;;;;;;7.87;5.00;;;6.60;91.80;;;;;;5052526;28;20450;-71
2021/12/13 00:11:52;;;;;;;12.23;5.27;;;6.60;91.90;;;;;;5053148;28;20502;-72
2021/12/13 00:14:23;;;;;;;14.50;4.77;;;6.60;92.10;;;;;;5052953;28;20415;-72
2021/12/13 00:17:23;;;;;;;7.33;4.60;;;6.70;92.00;;;;;;5052709;28;20426;-73
2021/12/13 00:19:55;;;;;;;8.20;4.53;;;6.70;92.10;;;;;;5046610;28;20457;-72
2021/12/13 00:22:32;;;;;;;7.50;5.20;;;6.70;92.10;;;;;;5053715;28;20458;-73
2021/12/13 00:25:03;;;;;;;9.70;5.10;;;6.60;92.40;;;;;;5052718;28;20406;-70
2021/12/13 00:27:30;;;;;;;9.27;5.73;;;6.70;92.50;;;;;;5053443;28;20421;-72
2021/12/13 00:30:18;;;;;;;17.77;7.33;;;6.60;92.50;;;;;;5053186;28;20857;-70
2021/12/13 00:33:14;;;;;;;8.43;5.00;;;6.50;92.80;;;;;;5055034;28;20411;-73
2021/12/13 00:35:50;;;;;;;8.23;5.50;;;6.60;93.00;;;;;;5054647;28;20426;-70
2021/12/13 00:38:20;;;;;;;13.50;5.73;;;6.50;93.00;;;;;;5054495;28;21356;-72
2021/12/13 00:40:56;;;;;;;16.70;6.07;;;6.50;93.20;;;;;;5054072;28;20423;-73
2021/12/13 00:43:32;;;;;;;8.13;5.00;;;6.40;93.40;;;;;;5049012;28;20473;-72
2021/12/13 00:46:04;;;;;;;12.60;6.03;;;6.40;93.70;;;;;;5053291;28;20410;-70
2021/12/13 00:48:33;;;;;;;11.90;4.97;;;6.40;93.90;;;;;;5051285;28;20447;-72
2021/12/13 00:51:12;;;;;;;11.03;5.10;;;6.30;94.10;;;;;;5052762;28;20931;-72
2021/12/13 00:53:42;;;;;;;10.27;5.40;;;6.40;94.30;;;;;;5052448;28;20446;-71
2021/12/13 00:56:46;;;;;;;8.70;5.47;;;6.40;94.40;;;;;;5045928;28;20415;-71
2021/12/13 00:59:20;;;;;;;9.50;5.30;;;6.40;94.50;;;;;;5052269;28;20529;-71
2021/12/13 01:02:03;;;;;;;9.90;5.67;;;6.30;94.70;;;;;;5051179;28;20444;-71
2021/12/13 01:04:50;;;;;;;11.17;5.97;;;6.40;94.80;;;;;;5047588;28;20789;-72
2021/12/13 01:07:56;;;;;;;8.57;5.83;;;6.40;94.90;;;;;;5052516;28;20419;-71
2021/12/13 01:10:48;;;;;;;8.77;5.23;;;6.40;94.90;;;;;;5051853;28;20426;-71
2021/12/13 01:13:49;;;;;;;9.50;5.50;;;6.50;95.00;;;;;;5052773;28;20473;-70
2021/12/13 01:16:51;;;;;;;11.93;6.97;;;6.50;95.10;;;;;;5009317;28;21001;-71
2021/12/13 01:19:31;;;;;;;8.53;5.47;;;6.50;95.10;;;;;;5009419;28;21059;-72
2021/12/13 01:27:45;;;;;;;11.33;6.30;;;6.50;95.60;;;;;;5006840;28;20833;-71
2021/12/13 01:30:14;;;;;;;11.03;7.37;;;6.50;95.70;;;;;;4995002;28;20436;-72
2021/12/13 01:32:44;;;;;;;13.23;6.10;;;6.40;95.80;;;;;;5005975;28;20429;-72
2021/12/13 01:35:18;;;;;;;12.13;6.73;;;6.30;96.00;;;;;;5003928;28;20431;-71
2021/12/13 01:37:51;;;;;;;11.40;6.43;;;6.30;96.20;;;;;;5005510;28;20416;-71
2021/12/13 01:40:18;;;;;;;11.33;6.87;;;6.20;96.30;;;;;;5007266;28;20495;-71
2021/12/13 01:42:44;;;;;;;9.77;6.07;;;6.30;96.60;;;;;;5003910;28;20577;-71
2021/12/13 01:45:15;;;;;;;12.77;7.27;;;6.30;96.70;;;;;;5012938;28;20472;-72
2021/12/13 01:47:44;;;;;;;12.37;6.70;;;6.20;96.80;;;;;;5003194;28;20434;-71
2021/12/13 01:50:18;;;;;;;16.40;7.13;;;6.20;97.00;;;;;;5003342;28;20460;-71
2021/12/13 01:52:48;;;;;;;18.80;7.60;;;6.10;97.20;;;;;;5046088;28;20963;-71
2021/12/13 01:55:23;;;;;;;13.30;8.20;;;6.10;97.40;;;;;;5045981;28;20925;-71
2021/12/13 01:58:08;;;;;;;14.63;7.27;;;6.10;97.50;;;;;;5049926;28;20425;-72
2021/12/13 02:03:46;;;;;;;21.97;7.70;;;6.00;97.80;;;;;;5050983;28;20636;-72
2021/12/13 02:06:29;;;;;;;20.23;8.40;;;6.00;98.00;;;;;;5045976;28;20842;-72
2021/12/13 02:08:59;;;;;;;16.33;7.87;;;6.00;98.10;;;;;;5051543;28;20504;-71
2021/12/13 02:11:27;;;;;;;11.13;7.60;;;6.00;98.20;;;;;;5052271;28;20507;-71
2021/12/13 02:14:13;;;;;;;13.73;6.97;;;6.00;98.30;;;;;;5050227;28;20427;-73
2021/12/13 02:17:03;;;;;;;13.33;7.30;;;6.00;98.40;;;;;;5053421;28;20427;-71
2021/12/13 02:19:40;;;;;;;14.90;7.80;;;6.10;98.50;;;;;;5055989;28;20435;-72
2021/12/13 02:22:25;;;;;;;11.83;6.70;;;6.20;98.40;;;;;;5051111;28;20411;-72
2021/12/13 02:24:53;;;;;;;12.47;6.77;;;6.30;98.40;;;;;;5058439;28;20425;-72
2021/12/13 02:27:26;;;;;;;12.43;6.83;;;6.30;98.30;;;;;;5059123;28;20419;-72
2021/12/13 02:29:54;;;;;;;13.80;7.90;;;6.40;98.10;;;;;;5057744;28;20503;-72
2021/12/13 02:32:25;;;;;;;14.33;7.20;;;6.40;98.00;;;;;;5055172;28;20419;-71
2021/12/13 02:34:51;;;;;;;13.70;7.83;;;6.40;98.00;;;;;;5054008;28;20415;-71
2021/12/13 02:37:17;;;;;;;17.63;7.10;;;6.50;98.00;;;;;;5055707;28;20419;-71
2021/12/13 02:39:46;;;;;;;10.77;5.93;;;6.50;98.00;;;;;;5054373;28;20447;-72
2021/12/13 02:42:18;;;;;;;10.90;6.60;;;6.50;97.90;;;;;;5055511;28;20435;-71
2021/12/13 02:44:47;;;;;;;16.57;6.63;;;6.60;97.80;;;;;;5053638;28;20480;-70
2021/12/13 02:47:27;;;;;;;11.80;6.70;;;6.60;97.70;;;;;;5050954;28;20464;-72
2021/12/13 02:49:54;;;;;;;16.53;7.33;;;6.60;97.60;;;;;;5042386;28;20438;-72
2021/12/13 02:52:22;;;;;;;15.00;7.63;;;6.60;97.50;;;;;;5049382;28;20759;-71
2021/12/13 02:54:53;;;;;;;13.53;6.93;;;6.50;97.50;;;;;;5044842;28;20438;-70
2021/12/13 02:57:24;;;;;;;14.80;6.70;;;6.50;97.60;;;;;;5050762;28;20495;-71
2021/12/13 02:59:56;;;;;;;15.63;8.50;;;6.60;97.70;;;;;;5050019;28;20438;-70
2021/12/13 03:02:37;;;;;;;13.67;7.70;;;6.60;97.70;;;;;;5049846;28;20632;-72
2021/12/13 03:05:06;;;;;;;12.97;6.43;;;6.60;97.70;;;;;;5049499;28;20526;-70
2021/12/13 03:07:39;;;;;;;11.83;7.03;;;6.60;97.70;;;;;;5047316;28;20959;-70
2021/12/13 03:10:14;;;;;;;11.57;6.43;;;6.70;97.70;;;;;;5049712;28;20438;-72
2021/12/13 03:12:40;;;;;;;13.40;6.80;;;6.70;97.60;;;;;;5049995;28;20456;-72
2021/12/13 03:15:11;;;;;;;14.53;7.53;;;6.70;97.50;;;;;;5049658;28;20608;-72
2021/12/13 03:17:44;;;;;;;15.30;8.07;;;6.70;97.50;;;;;;5050184;28;21007;-72
2021/12/13 03:20:19;;;;;;;11.83;7.23;;;6.70;97.50;;;;;;5050190;28;20447;-73
2021/12/13 03:23:02;;;;;;;13.20;5.93;;;6.70;97.60;;;;;;5048835;28;20458;-72
2021/12/13 03:25:40;;;;;;;13.50;7.17;;;6.70;97.60;;;;;;5046197;28;20944;-72
2021/12/13 03:29:00;;;;;;;11.57;6.37;;;6.70;97.50;;;;;;5049341;28;20917;-72
2021/12/13 03:31:37;;;;;;;13.70;7.57;;;6.80;97.40;;;;;;5028614;28;20491;-72
2021/12/13 03:34:06;;;;;;;11.63;6.73;;;6.80;97.20;;;;;;5042906;28;20407;-72
2021/12/13 03:36:37;;;;;;;15.80;6.50;;;6.80;97.10;;;;;;5049658;28;20478;-72
2021/12/13 03:39:07;;;;;;;13.40;7.70;;;6.80;97.00;;;;;;5049144;28;20576;-73
2021/12/13 03:41:38;;;;;;;14.20;7.70;;;6.80;96.80;;;;;;5050023;28;20422;-73
2021/12/13 03:44:12;;;;;;;15.87;7.20;;;6.80;96.80;;;;;;5049521;28;20479;-72
2021/12/13 03:46:40;;;;;;;10.97;7.40;;;6.80;96.70;;;;;;5049544;28;20403;-72
2021/12/13 03:49:08;;;;;;;12.80;6.70;;;6.90;96.70;;;;;;5049153;28;20917;-72
2021/12/13 03:51:37;;;;;;;14.03;7.17;;;6.90;96.50;;;;;;5049823;28;20419;-71
2021/12/13 03:54:05;;;;;;;14.20;7.70;;;6.90;96.30;;;;;;5048648;28;20423;-72
2021/12/13 03:56:37;;;;;;;8.70;6.77;;;6.90;96.20;;;;;;5048126;28;20425;-72
2021/12/13 03:59:10;;;;;;;15.57;7.73;;;6.90;96.10;;;;;;5050726;28;20569;-70
2021/12/13 04:01:42;;;;;;;12.90;6.90;;;6.90;96.20;;;;;;5050041;28;20423;-71
2021/12/13 04:04:17;;;;;;;10.93;6.13;;;6.90;96.10;;;;;;5047976;28;20493;-71
2021/12/13 04:06:47;;;;;;;14.63;7.00;;;6.90;95.90;;;;;;5049507;28;20545;-71
2021/12/13 04:09:14;;;;;;;13.20;7.17;;;6.90;95.70;;;;;;5043837;28;20442;-70
2021/12/13 04:11:43;;;;;;;13.00;7.20;;;6.90;95.70;;;;;;5049362;28;20463;-72
2021/12/13 04:14:16;;;;;;;16.30;7.40;;;6.90;95.50;;;;;;5049357;28;20843;-71
2021/12/13 04:17:19;;;;;;;12.70;6.57;;;6.80;95.50;;;;;;5049946;28;21044;-70
2021/12/13 04:19:53;;;;;;;14.87;7.27;;;6.80;95.70;;;;;;5051018;28;20869;-72
2021/12/13 04:22:25;;;;;;;9.53;6.13;;;6.80;95.80;;;;;;5051558;28;20422;-72
2021/12/13 04:24:59;;;;;;;16.10;7.60;;;6.80;95.90;;;;;;5049460;28;20427;-72
2021/12/13 04:27:30;;;;;;;12.77;6.77;;;6.90;96.00;;;;;;5050773;28;20445;-72
2021/12/13 04:30:00;;;;;;;12.27;7.13;;;6.90;95.90;;;;;;5049849;28;20980;-72
2021/12/13 04:32:33;;;;;;;16.67;7.03;;;6.90;95.90;;;;;;5051219;28;20427;-72
2021/12/13 04:35:03;;;;;;;12.57;6.70;;;7.00;95.80;;;;;;5050148;28;20429;-72
2021/12/13 04:37:36;;;;;;;13.93;8.70;;;7.00;95.70;;;;;;5052271;28;20829;-72
2021/12/13 04:40:08;;;;;;;16.47;8.43;;;6.90;95.30;;;;;;5052403;28;20804;-71
2021/12/13 04:42:34;;;;;;;14.67;7.20;;;6.90;95.30;;;;;;5051053;28;20466;-73
2021/12/13 04:45:15;;;;;;;15.43;7.20;;;6.90;95.30;;;;;;5049081;28;20418;-74
2021/12/13 04:48:05;;;;;;;12.60;6.77;;;6.90;95.30;;;;;;5048604;28;20411;-72
2021/12/13 04:50:53;;;;;;;15.20;7.67;;;7.00;95.00;;;;;;5050359;28;20458;-72
2021/12/13 04:53:25;;;;;;;12.80;7.20;;;7.00;94.90;;;;;;5052364;28;20876;-72
2021/12/13 04:55:53;;;;;;;9.77;6.37;;;7.00;94.90;;;;;;5044684;28;20418;-71
2021/12/13 04:58:20;;;;;;;13.60;6.90;;;7.00;94.90;;;;;;5052207;28;20443;-72
2021/12/13 05:00:51;;;;;;;11.00;6.60;;;7.00;94.70;;;;;;5052210;28;20533;-71
2021/12/13 05:03:20;;;;;;;11.20;6.43;;;7.00;94.60;;;;;;5050935;28;20897;-72
2021/12/13 05:05:46;;;;;;;13.23;6.40;;;7.00;94.60;;;;;;5051919;28;20515;-71
2021/12/13 05:08:14;;;;;;;11.67;7.10;;;7.00;94.90;;;;;;5051767;28;21303;-71
2021/12/13 05:10:44;;;;;;;13.87;6.53;;;7.00;94.90;;;;;;5052157;28;20492;-72
2021/12/13 05:13:17;;;;;;;13.03;7.10;;;7.00;94.90;;;;;;5052166;28;20426;-71
2021/12/13 05:16:11;;;;;;;12.63;7.50;;;7.00;95.00;;;;;;5051137;28;20545;-72
2021/12/13 05:18:45;;;;;;;11.10;6.43;;;7.00;95.10;;;;;;5049663;28;20792;-70
2021/12/13 05:21:16;;;;;;;16.30;7.10;;;7.10;94.90;;;;;;5052908;28;20967;-72
2021/12/13 05:23:56;;;;;;;16.33;7.17;;;7.10;95.00;;;;;;5052372;28;20473;-70
2021/12/13 05:27:07;;;;;;;13.17;6.70;;;7.10;94.90;;;;;;5052536;28;20430;-72
2021/12/13 05:29:51;;;;;;;14.47;6.30;;;7.10;94.80;;;;;;5056089;28;20435;-72
2021/12/13 05:32:21;;;;;;;9.23;6.47;;;7.10;94.70;;;;;;5053422;28;20948;-71
2021/12/13 05:34:52;;;;;;;14.50;7.90;;;7.10;94.70;;;;;;5059565;28;20407;-72
2021/12/13 05:37:19;;;;;;;16.60;8.20;;;7.10;94.70;;;;;;5057340;28;20411;-72
2021/12/13 05:40:20;;;;;;;12.97;7.20;;;7.10;94.70;;;;;;5051852;28;20438;-72
2021/12/13 05:42:56;;;;;;;17.27;7.23;;;7.10;94.70;;;;;;5009484;28;20482;-72
2021/12/13 05:45:33;;;;;;;12.43;6.40;;;7.10;94.60;;;;;;5010452;28;20428;-73
2021/12/13 05:48:08;;;;;;;11.33;6.50;;;7.20;94.60;;;;;;5012324;28;20417;-73
2021/12/13 05:50:40;;;;;;;13.73;7.40;;;7.20;94.50;;;;;;5012813;28;20413;-72
2021/12/13 05:53:11;;;;;;;10.47;6.43;;;7.20;94.50;;;;;;5000271;28;20440;-73
2021/12/13 05:55:48;;;;;;;13.23;6.93;;;7.20;94.30;;;;;;5016982;28;20447;-73
2021/12/13 05:58:28;;;;;;;15.40;7.53;;;7.20;94.30;;;;;;4993509;28;20958;-72
2021/12/13 06:00:57;;;;;;;11.90;6.53;;;7.20;94.30;;;;;;5010232;28;20421;-71
2021/12/13 06:03:35;;;;;;;12.30;7.07;;;7.20;94.40;;;;;;4989164;28;20472;-73
2021/12/13 06:06:10;;;;;;;11.83;7.80;;;7.20;94.40;;;;;;5008912;28;20425;-73
2021/12/13 06:08:48;;;;;;;13.53;7.70;;;7.20;94.30;;;;;;4991427;28;20474;-73
2021/12/13 06:11:20;;;;;;;14.47;7.13;;;7.10;94.30;;;;;;5009425;28;20993;-72
2021/12/13 06:13:55;;;;;;;13.90;8.27;;;7.10;94.40;;;;;;4991596;28;21054;-72
2021/12/13 06:16:23;;;;;;;11.57;7.03;;;7.00;94.40;;;;;;4993769;28;20447;-73
2021/12/13 06:18:58;;;;;;;15.10;7.80;;;7.00;94.50;;;;;;5025243;28;20949;-71
2021/12/13 06:21:48;;;;;;;15.20;8.60;;;7.10;94.60;;;;;;5050731;28;20422;-73
2021/12/13 06:24:22;;;;;;;14.60;8.10;;;7.10;94.70;;;;;;5045671;28;20802;-72
2021/12/13 06:26:48;;;;;;;14.43;7.27;;;7.10;94.70;;;;;;5049631;28;20423;-72
2021/12/13 06:29:13;;;;;;;11.30;7.47;;;7.10;94.60;;;;;;5050313;28;20434;-74
2021/12/13 06:31:43;;;;;;;14.73;7.33;;;7.10;94.50;;;;;;5051127;28;20623;-72
2021/12/13 06:34:15;;;;;;;10.70;6.60;;;7.10;94.70;;;;;;5050473;28;20238;-73
2021/12/13 06:36:48;;;;;;;12.30;6.77;;;7.10;94.70;;;;;;5048935;28;20419;-71
2021/12/13 06:39:30;;;;;;;18.37;7.67;;;7.10;94.70;;;;;;5049008;28;20450;-71
2021/12/13 06:42:06;;;;;;;14.43;7.73;;;7.20;94.70;;;;;;5050615;28;20411;-73
2021/12/13 06:44:37;;;;;;;14.07;7.17;;;7.20;94.80;;;;;;5049995;28;20520;-73
2021/12/13 06:47:07;;;;;;;15.30;6.93;;;7.20;94.70;;;;;;5050482;28;20422;-73
2021/12/13 06:49:38;;;;;;;11.30;6.90;;;7.30;94.50;;;;;;5047437;28;20477;-72
2021/12/13 06:52:04;;;;;;;10.93;7.83;;;7.30;94.20;;;;;;5049325;28;20526;-73
2021/12/13 06:54:41;;;;;;;12.00;7.17;;;7.30;94.20;;;;;;5044408;28;20970;-73
2021/12/13 06:57:16;;;;;;;14.10;7.40;;;7.20;94.00;;;;;;5056600;28;20181;-73
2021/12/13 06:59:55;;;;;;;14.43;8.17;;;7.30;93.90;;;;;;5059099;28;20446;-72
2021/12/13 07:02:27;;;;;;;15.13;7.17;;;7.20;93.80;;;;;;5057000;28;20426;-72
2021/12/13 07:05:17;;;;;;;12.97;7.10;;;7.20;93.90;;;;;;5049053;28;20531;-72
2021/12/13 07:07:57;;;;;;;14.93;7.20;;;7.20;94.10;;;;;;5054418;28;20434;-73
2021/12/13 07:10:27;;;;;;;11.80;6.93;;;7.30;94.20;;;;;;5056807;28;20425;-72
2021/12/13 07:12:58;;;;;;;13.20;7.73;;;7.30;94.00;;;;;;5051821;28;20422;-71
2021/12/13 07:15:47;;;;;;;17.20;8.70;;;7.30;93.80;;;;;;5051086;28;20832;-73
2021/12/13 07:18:18;;;;;;;19.87;8.80;;;7.30;93.70;;;;;;5043453;28;20798;-72
2021/12/13 07:21:06;;;;;;;15.93;8.57;;;7.20;93.90;;;;;;5052633;28;20410;-72
2021/12/13 07:23:50;;;;;;;19.33;8.77;;;7.20;94.00;;;;;;5051136;28;20458;-72
2021/12/13 07:26:49;;;;;;;14.40;7.90;;;7.10;94.20;;;;;;5050997;28;20932;-73
2021/12/13 07:29:23;;;;;;;18.20;9.20;;;7.10;94.40;;;;;;5041897;28;20470;-73
2021/12/13 07:32:10;;;;;;;17.63;10.23;;;7.00;94.60;;;;;;5051190;28;20446;-73
2021/12/13 07:34:50;;;;;;;18.67;11.20;;;6.90;95.00;;;;;;5052854;28;20430;-73
2021/12/13 07:37:17;;;;;;;18.47;10.10;;;6.90;95.20;;;;;;5050855;28;20425;-73
2021/12/13 07:39:44;;;;;;;21.80;10.60;;;6.90;95.20;;;;;;5051337;28;20446;-72
2021/12/13 07:42:12;;;;;;;16.20;9.17;;;6.90;95.30;;;;;;5051302;28;20866;-72
2021/12/13 07:44:45;;;;;;;18.60;8.77;;;6.90;95.30;;;;;;5048785;28;20466;-73
2021/12/13 07:47:23;;;;;;;16.60;8.77;;;6.90;95.50;;;;;;5050579;28;20426;-73
2021/12/13 07:49:58;;;;;;;18.67;9.27;;;7.00;95.60;;;;;;5051137;28;20426;-72
2021/12/13 07:52:38;;;;;;;18.27;9.83;;;7.00;95.70;;;;;;5051088;28;20420;-72
2021/12/13 07:55:23;;;;;;;18.50;8.87;;;7.10;95.70;;;;;;5037434;28;20967;-75
2021/12/13 07:57:50;;;;;;;25.33;9.17;;;7.10;95.40;;;;;;5050149;28;20465;-72
2021/12/13 08:00:32;;;;;;;19.60;9.47;;;7.20;95.20;;;;;;5049383;28;20979;-72
2021/12/13 08:03:04;;;;;;;17.47;9.90;;;7.10;95.00;;;;;;5041765;28;20521;-73
2021/12/13 08:05:46;;;;;;;19.50;9.70;;;7.10;94.90;;;;;;5049022;28;20956;-73
2021/12/13 08:08:32;;;;;;;16.53;9.50;;;7.10;95.00;;;;;;5052637;28;20422;-74
2021/12/13 08:11:00;;;;;;;20.33;10.17;;;7.10;95.10;;;;;;5050321;28;20415;-73
2021/12/13 08:13:31;;;;;;;21.50;10.30;;;7.10;95.10;;;;;;5051528;28;20438;-73
2021/12/13 08:16:03;;;;;;;19.37;9.50;;;7.10;95.20;;;;;;5044013;28;20461;-72
2021/12/13 08:18:38;;;;;;;27.97;10.47;;;7.20;95.40;;;;;;5051692;28;20442;-73
2021/12/13 08:21:17;;;;;;;20.40;9.87;;;7.30;95.40;;;;;;5051129;28;20438;-73
2021/12/13 08:23:58;;;;;;;22.87;11.00;;;7.40;95.40;;;;;;5051323;28;20454;-74
2021/12/13 08:26:41;;;;;;;19.10;11.50;;;7.60;94.90;;;;;;5052853;28;20418;-74
2021/12/13 08:29:15;;;;;;;20.20;10.30;;;7.60;94.60;;;;;;5048418;28;20519;-74
2021/12/13 08:31:43;;;;;;;20.33;10.53;;;7.70;94.20;;;;;;5052405;28;20541;-74
2021/12/13 08:34:15;;;;;;;24.77;10.30;;;7.70;94.20;;;;;;5053277;28;20425;-72
2021/12/13 08:36:44;;;;;;;23.33;10.90;;;7.80;94.10;;;;;;5050758;28;20418;-72
2021/12/13 08:39:15;;;;;;;25.03;11.57;;;7.90;94.10;;;;;;5053011;28;20457;-74
2021/12/13 08:41:51;;;;;;;24.27;11.37;;;8.00;93.80;;;;;;5053391;28;20418;-73
2021/12/13 08:44:23;;;;;;;24.63;10.90;;;8.00;93.30;;;;;;5052210;28;20471;-75
2021/12/13 08:46:55;;;;;;;20.70;10.30;;;8.10;93.30;;;;;;5059276;28;20435;-73
2021/12/13 08:49:29;;;;;;;18.97;9.90;;;8.10;93.10;;;;;;5059757;28;20447;-73
2021/12/13 08:52:13;;;;;;;20.47;10.03;;;8.20;93.00;;;;;;5061834;28;20442;-72
2021/12/13 08:55:06;;;;;;;19.73;9.17;;;8.40;92.90;;;;;;5083543;28;20444;-74
2021/12/13 08:57:44;;;;;;;20.77;10.83;;;8.50;92.50;;;;;;5060076;28;20515;-73
2021/12/13 09:00:12;;;;;;;19.30;9.60;;;8.50;91.80;;;;;;5058971;28;20434;-74
2021/12/13 09:02:45;;;;;;;17.80;10.03;;;8.40;91.80;;;;;;5057830;28;20438;-72
2021/12/13 09:05:19;;;;;;;14.87;9.40;;;8.50;91.90;;;;;;5053219;28;20419;-72
2021/12/13 09:07:53;;;;;;;19.33;10.17;;;8.50;91.90;;;;;;5053707;28;20418;-72
2021/12/13 09:10:20;;;;;;;20.23;9.33;;;8.60;91.80;;;;;;5053970;28;20445;-73
2021/12/13 09:12:47;;;;;;;24.07;11.40;;;8.60;91.80;;;;;;5054012;28;20433;-73
2021/12/13 09:15:23;;;;;;;24.00;10.93;;;8.70;91.70;;;;;;5054341;28;20441;-73
2021/12/13 09:17:51;;;;;;;22.07;10.83;;;8.70;91.40;;;;;;5059019;28;20418;-73
2021/12/13 09:20:22;;;;;;;20.53;11.60;;;8.70;91.50;;;;;;5057680;28;20446;-74
2021/12/13 09:22:52;;;;;;;20.73;9.67;;;8.80;91.30;;;;;;5057179;28;20470;-74
2021/12/13 09:25:29;;;;;;;22.03;11.63;;;8.70;91.40;;;;;;5058675;28;20449;-73
2021/12/13 09:28:08;;;;;;;18.47;10.00;;;8.80;91.50;;;;;;5058963;28;20418;-72
2021/12/13 09:30:43;;;;;;;18.67;11.03;;;8.80;91.20;;;;;;5055802;28;20423;-73
2021/12/13 09:33:20;;;;;;;18.47;11.33;;;8.90;91.20;;;;;;5053980;28;20422;-73
2021/12/13 09:36:00;;;;;;;25.60;10.00;;;8.80;91.30;;;;;;5052542;28;20469;-74
2021/12/13 09:38:43;;;;;;;17.90;9.40;;;8.90;91.40;;;;;;5049326;28;20502;-73
2021/12/13 09:41:33;;;;;;;22.17;10.13;;;8.80;91.50;;;;;;5053009;28;20788;-74
2021/12/13 09:44:31;;;;;;;27.73;10.80;;;8.90;91.60;;;;;;5052891;28;20478;-74
2021/12/13 09:47:05;;;;;;;21.90;10.67;;;9.00;91.80;;;;;;5044725;28;20434;-72
2021/12/13 09:49:38;;;;;;;19.47;9.43;;;9.10;91.40;;;;;;5052053;28;20816;-74
2021/12/13 09:52:10;;;;;;;18.70;10.47;;;9.20;91.30;;;;;;5052702;28;20423;-72
2021/12/13 09:54:41;;;;;;;23.37;10.70;;;9.30;91.20;;;;;;5045290;28;20507;-74
2021/12/13 09:57:12;;;;;;;16.50;8.70;;;9.40;91.00;;;;;;5052344;28;20442;-73
2021/12/13 09:59:46;;;;;;;17.63;9.40;;;9.50;90.80;;;;;;5053501;28;20439;-73
2021/12/13 10:02:21;;;;;;;16.17;8.50;;;9.50;90.70;;;;;;5053583;28;20427;-75
2021/12/13 10:04:49;;;;;;;15.80;8.77;;;9.50;90.60;;;;;;5052150;28;20476;-73
2021/12/13 10:07:28;;;;;;;19.83;10.10;;;9.50;90.60;;;;;;5053476;28;20751;-72
2021/12/13 10:09:58;;;;;;;32.30;8.90;;;9.50;90.60;;;;;;5047096;28;20435;-75
2021/12/13 10:12:30;;;;;;;14.70;8.00;;;9.70;90.40;;;;;;5049289;28;20492;-74
2021/12/13 10:15:07;;;;;;;18.93;8.23;;;9.70;90.10;;;;;;5045264;28;20458;-74
2021/12/13 10:17:37;;;;;;;16.57;8.13;;;9.70;89.70;;;;;;5051894;28;20456;-72
2021/12/13 10:20:37;;;;;;;27.40;10.20;;;9.70;90.20;;;;;;5051760;28;20463;-73
2021/12/13 10:23:06;;;;;;;15.03;7.13;;;9.70;90.50;;;;;;5050106;28;20870;-73
2021/12/13 10:25:36;;;;;;;13.67;6.10;;;9.60;90.50;;;;;;5051456;28;20909;-73
2021/12/13 10:28:04;;;;;;;18.93;7.10;;;9.60;90.90;;;;;;5050805;28;20452;-72
2021/12/13 10:30:44;;;;;;;28.57;9.17;;;9.70;90.90;;;;;;5051863;28;20901;-75
2021/12/13 10:33:17;;;;;;;17.80;7.27;;;9.80;90.70;;;;;;5052251;28;20419;-73
2021/12/13 10:35:44;;;;;;;15.57;7.00;;;9.90;90.60;;;;;;5051796;28;20429;-74
2021/12/13 10:38:20;;;;;;;17.83;8.60;;;9.90;90.50;;;;;;5053176;28;20430;-74
2021/12/13 10:40:54;;;;;;;17.40;7.33;;;10.00;90.40;;;;;;5063429;28;20450;-73
2021/12/13 10:43:28;;;;;;;13.80;8.00;;;10.00;90.30;;;;;;5055447;28;20481;-73
2021/12/13 10:46:03;;;;;;;27.63;9.77;;;10.10;90.00;;;;;;5050481;28;20424;-73
2021/12/13 10:48:31;;;;;;;17.20;8.90;;;10.20;89.70;;;;;;5048542;28;20527;-73
2021/12/13 10:51:10;;;;;;;15.80;8.50;;;10.20;89.60;;;;;;5050661;28;20419;-72
2021/12/13 10:53:38;;;;;;;26.00;10.30;;;10.30;89.00;;;;;;5050254;28;20933;-73
2021/12/13 10:56:11;;;;;;;36.17;9.60;;;10.30;89.00;;;;;;5048947;28;20419;-72
2021/12/13 10:58:43;;;;;;;14.70;8.80;;;10.30;89.30;;;;;;5050085;28;20890;-74
2021/12/13 11:01:33;;;;;;;13.17;7.87;;;10.30;89.20;;;;;;5044798;28;20506;-73
2021/12/13 11:04:01;;;;;;;14.57;7.83;;;10.30;89.30;;;;;;5050174;28;20474;-72
2021/12/13 11:06:28;;;;;;;13.23;7.50;;;10.30;89.50;;;;;;5049609;28;20516;-74
2021/12/13 11:08:54;;;;;;;16.17;8.00;;;10.30;89.60;;;;;;5048351;28;20838;-72
2021/12/13 11:11:26;;;;;;;13.00;7.67;;;10.40;89.70;;;;;;5051369;28;20441;-72
2021/12/13 11:13:58;;;;;;;17.10;7.53;;;10.40;89.60;;;;;;5050465;28;20431;-74
2021/12/13 11:16:47;;;;;;;13.90;8.33;;;10.50;89.30;;;;;;5051486;28;21004;-74
2021/12/13 11:19:18;;;;;;;9.90;6.57;;;10.60;88.70;;;;;;5049477;28;20453;-73
2021/12/13 11:21:47;;;;;;;12.83;7.30;;;10.60;88.60;;;;;;5051387;28;20434;-73
2021/12/13 11:24:19;;;;;;;13.87;6.33;;;10.50;89.00;;;;;;5053435;28;20475;-74
2021/12/13 11:26:48;;;;;;;11.30;6.37;;;10.50;89.60;;;;;;5054807;28;20463;-74
2021/12/13 11:29:15;;;;;;;13.43;6.10;;;10.50;89.20;;;;;;5055383;28;20458;-75
2021/12/13 11:31:53;;;;;;;9.87;5.87;;;10.50;89.00;;;;;;5050812;28;20423;-73
2021/12/13 11:34:41;;;;;;;16.10;6.00;;;10.50;89.60;;;;;;5050939;28;20423;-73
2021/12/13 11:37:19;;;;;;;7.87;4.63;;;10.50;89.60;;;;;;5040410;28;20443;-73
2021/12/13 11:40:19;;;;;;;10.00;5.50;;;10.40;89.90;;;;;;5050198;28;20447;-74
2021/12/13 11:43:20;;;;;;;8.70;4.63;;;10.40;90.20;;;;;;4991556;28;20468;-75
2021/12/13 11:46:09;;;;;;;8.73;3.27;;;10.30;90.50;;;;;;4970721;28;20452;-74
2021/12/13 11:48:56;;;;;;;6.97;3.50;;;10.30;90.30;;;;;;4995014;28;20534;-74
2021/12/13 11:51:41;;;;;;;10.83;4.30;;;10.20;90.40;;;;;;5009562;28;20512;-74
2021/12/13 11:54:40;;;;;;;6.43;3.83;;;10.10;90.80;;;;;;5009814;28;20437;-74
2021/12/13 11:57:12;;;;;;;12.27;6.60;;;10.20;90.80;;;;;;5007068;28;20491;-73
2021/12/13 12:00:07;;;;;;;32.77;13.50;;;10.20;91.10;;;;;;5016579;28;20449;-73
2021/12/13 12:02:54;;;;;;;26.43;12.90;;;10.20;91.20;;;;;;5015326;28;20443;-73
2021/12/13 12:06:08;;;;;;;28.90;12.17;;;10.00;91.70;;;;;;4999092;28;20432;-72
2021/12/13 12:09:11;;;;;;;23.43;12.30;;;10.00;92.20;;;;;;4992096;28;20791;-74
2021/12/13 12:12:14;;;;;;;26.03;12.80;;;9.90;92.30;;;;;;5012800;28;20471;-74
2021/12/13 12:14:40;;;;;;;21.60;10.63;;;10.00;92.40;;;;;;4995344;28;20570;-73
2021/12/13 12:17:07;;;;;;;24.43;11.43;;;10.00;92.40;;;;;;5011320;28;20899;-72
2021/12/13 12:19:40;;;;;;;17.67;9.67;;;10.10;92.10;;;;;;5033420;28;20224;-73
2021/12/13 12:22:15;;;;;;;20.87;9.30;;;10.10;92.10;;;;;;5048362;28;20431;-74
2021/12/13 12:24:46;;;;;;;23.53;8.87;;;10.20;91.90;;;;;;5053067;28;21006;-73
2021/12/13 12:27:16;;;;;;;18.60;10.03;;;10.20;91.70;;;;;;5053903;28;20422;-72
2021/12/13 12:29:47;;;;;;;23.60;10.00;;;10.20;91.50;;;;;;5053534;28;21063;-73
2021/12/13 12:32:20;;;;;;;21.83;10.13;;;10.10;91.60;;;;;;5058037;28;20445;-73
2021/12/13 12:34:56;;;;;;;22.23;10.20;;;10.00;91.90;;;;;;5058935;28;20438;-73
2021/12/13 12:37:31;;;;;;;23.43;11.87;;;9.90;92.30;;;;;;5058915;28;20419;-72
2021/12/13 12:40:03;;;;;;;19.03;10.40;;;9.80;92.50;;;;;;5050744;28;20752;-72
2021/12/13 12:42:36;;;;;;;24.87;10.10;;;9.80;92.60;;;;;;5060495;28;20434;-72
2021/12/13 12:45:20;;;;;;;21.10;10.53;;;9.80;92.80;;;;;;5058321;28;20514;-74
2021/12/13 12:48:03;;;;;;;23.80;11.23;;;9.80;92.80;;;;;;5053234;28;20414;-75
2021/12/13 12:50:43;;;;;;;21.03;9.43;;;9.70;93.00;;;;;;5053778;28;20991;-73
2021/12/13 12:53:28;;;;;;;19.17;9.80;;;9.90;93.00;;;;;;5051284;28;20422;-74
2021/12/13 12:56:02;;;;;;;22.23;11.30;;;9.90;92.80;;;;;;5051383;28;20419;-73
2021/12/13 12:58:52;;;;;;;22.60;11.00;;;9.90;92.80;;;;;;5053358;28;20443;-73
2021/12/13 13:01:22;;;;;;;19.50;10.33;;;9.90;92.80;;;;;;5048603;28;20415;-73
2021/12/13 13:03:48;;;;;;;24.20;11.30;;;9.90;92.80;;;;;;5050301;28;20516;-73
2021/12/13 13:06:23;;;;;;;20.13;10.70;;;9.90;93.00;;;;;;5053580;28;20427;-72
2021/12/13 13:08:52;;;;;;;18.67;10.77;;;9.90;93.10;;;;;;5053160;28;20295;-73
2021/12/13 13:11:27;;;;;;;26.87;11.50;;;9.90;93.30;;;;;;5052548;28;20425;-73
2021/12/13 13:14:13;;;;;;;25.13;12.10;;;9.80;93.20;;;;;;5051141;28;20459;-73
2021/12/13 13:16:54;;;;;;;18.60;9.97;;;9.80;93.40;;;;;;5044893;28;20466;-72
2021/12/13 13:19:31;;;;;;;23.73;11.40;;;9.70;93.50;;;;;;5053910;28;20462;-71
2021/12/13 13:22:02;;;;;;;22.00;10.17;;;9.70;93.60;;;;;;5052945;28;20509;-71
2021/12/13 13:24:28;;;;;;;19.70;9.47;;;9.70;93.60;;;;;;5051536;28;20462;-71
2021/12/13 13:26:54;;;;;;;21.60;9.23;;;9.70;93.60;;;;;;5051799;28;20431;-72
2021/12/13 13:29:22;;;;;;;20.83;9.77;;;9.70;93.50;;;;;;5053055;28;20209;-72
2021/12/13 13:31:53;;;;;;;20.83;9.70;;;9.70;93.40;;;;;;5053465;28;20541;-73
2021/12/13 13:34:28;;;;;;;17.67;9.40;;;9.70;93.40;;;;;;5053039;28;21003;-72
2021/12/13 13:37:16;;;;;;;21.93;10.23;;;9.80;93.40;;;;;;5046620;28;20501;-73
2021/12/13 13:39:49;;;;;;;19.33;9.93;;;9.80;93.20;;;;;;5054560;28;20472;-72